Orient Delivery — 5BNY3 — position and weather

sailwx.info

Track history (hours):
 
Tides and Currents Weather Stations Pressure Air Temp Water Temp Dewpoint Dewpoint Depression Visibility Wind Speed Wind Dir Waves Ship Positions

Orient Delivery

Last reported at 2018-Jun-02 10:10 UTC. Time now 2018-Jun-24 05:18 UTC.
Position N 35°58' W 005°34'.
Warning: this ship's position is 21 days out of date.

Length 186 m; draft 7.3 m.

Type: Cargo ship. MMSI: 209745000.

Date/timePositionNaut miles runAvg speedWind from/ knotsBaromVisibWave heightAir tempDewpointWater temp
2018-Jun-02 10:10N 35°58' W 005°34'212.5
2018-Jun-02 10:00N 35°59' W 005°31'611.7
2018-Jun-02 09:30N 36°01' W 005°25'4 8.3
2018-Jun-02 09:00N 36°05' W 005°23'0 0.4
2018-Jun-02 08:30N 36°04' W 005°23'1 1.0
2018-Jun-02 07:54N 36°04' W 005°22'1 2.6
2018-Jun-02 07:30N 36°05' W 005°22'3 1.8
2018-Jun-02 06:07N 36°08' W 005°22'0 0.0
2018-Jun-02 05:55N 36°08' W 005°22'0 0.0
2018-Jun-02 05:25N 36°08' W 005°22'0 0.0
2018-Jun-02 04:55N 36°08' W 005°22'0 0.1
2018-Jun-02 04:25N 36°08' W 005°22'0 0.1
2018-Jun-02 03:49N 36°08' W 005°22'0 0.0
2018-Jun-02 03:25N 36°08' W 005°22'0 0.1
2018-Jun-02 02:55N 36°08' W 005°22'0 0.1
2018-Jun-02 02:25N 36°08' W 005°22'0 0.0
2018-Jun-02 01:55N 36°08' W 005°22'0 0.2
2018-Jun-02 01:25N 36°08' W 005°22'0 0.1
2018-Jun-02 00:55N 36°08' W 005°22'0 0.3
2018-Jun-02 00:19N 36°07' W 005°22'0 0.1
2018-Jun-01 23:55N 36°08' W 005°22'0 0.1
2018-Jun-01 23:25N 36°07' W 005°22'0 0.1
2018-Jun-01 22:56N 36°08' W 005°22'1 3.3
2018-Jun-01 22:31N 36°06' W 005°22'3 5.5
2018-Jun-01 22:00N 36°05' W 005°19'1 1.3
2018-Jun-01 21:30N 36°05' W 005°18'1 1.6
2018-Jun-01 21:01N 36°04' W 005°18'3 6.8
2018-Jun-01 20:31N 36°03' W 005°14'4 7.9
2018-Jun-01 19:58N 36°05' W 005°08'166 8.6
2018-Jun-01 00:38N 36°11' W 001°44'214.1
2018-Jun-01 00:27N 36°11' W 001°41'1113.9
2018-May-31 23:40N 36°12' W 001°27'214.0
2018-May-31 23:30N 36°12' W 001°24'1014.2
2018-May-31 22:46N 36°14' W 001°11'515.2
2018-May-31 22:26N 36°15' W 001°05'1415.0
2018-May-31 21:28N 36°19' W 000°48'714.8
2018-May-31 21:00N 36°21' W 000°40'714.9
2018-May-31 20:30N 36°23' W 000°31'815.1
2018-May-31 19:59N 36°25' W 000°21'715.1
2018-May-31 19:30N 36°27' W 000°13'714.7
2018-May-31 19:00N 36°29' W 000°04'714.3
2018-May-31 18:30N 36°31' E 000°05'714.0
2018-May-31 18:00N 36°33' E 000°13'713.8
2018-May-31 17:30N 36°35' E 000°21'713.9
2018-May-31 17:00N 36°37' E 000°30'713.9
2018-May-31 16:30N 36°39' E 000°38'714.0
2018-May-31 16:00N 36°41' E 000°46'714.0
2018-May-31 15:30N 36°43' E 000°55'713.8
2018-May-31 15:00N 36°45' E 001°03'713.8
2018-May-31 14:30N 36°47' E 001°11'714.0
2018-May-31 14:00N 36°48' E 001°20'713.9
2018-May-31 13:30N 36°50' E 001°28'713.9
2018-May-31 13:00N 36°52' E 001°36'  
Track history (hours):
 
Tides and Currents Weather Stations Pressure Air Temp Water Temp Dewpoint Dewpoint Depression Visibility Wind Speed Wind Dir Waves Ship Positions

Orient Delivery

Last reported at 2018-Jun-02 10:10 UTC. Time now 2018-Jun-24 05:18 UTC.
Position N 35°58' W 005°34'.
Warning: this ship's position is 21 days out of date.

Length 186 m; draft 7.3 m.

Type: Cargo ship. MMSI: 209745000.

Date/timePositionNaut miles runAvg speedWind from/ knotsBaromVisibWave heightAir tempDewpointWater temp
2018-Jun-02 10:10N 35°58' W 005°34'212.5
2018-Jun-02 10:00N 35°59' W 005°31'611.7
2018-Jun-02 09:30N 36°01' W 005°25'4 8.3
2018-Jun-02 09:00N 36°05' W 005°23'0 0.4
2018-Jun-02 08:30N 36°04' W 005°23'1 1.0
2018-Jun-02 07:54N 36°04' W 005°22'1 2.6
2018-Jun-02 07:30N 36°05' W 005°22'3 1.8
2018-Jun-02 06:07N 36°08' W 005°22'0 0.0
2018-Jun-02 05:55N 36°08' W 005°22'0 0.0
2018-Jun-02 05:25N 36°08' W 005°22'0 0.0
2018-Jun-02 04:55N 36°08' W 005°22'0 0.1
2018-Jun-02 04:25N 36°08' W 005°22'0 0.1
2018-Jun-02 03:49N 36°08' W 005°22'0 0.0
2018-Jun-02 03:25N 36°08' W 005°22'0 0.1
2018-Jun-02 02:55N 36°08' W 005°22'0 0.1
2018-Jun-02 02:25N 36°08' W 005°22'0 0.0
2018-Jun-02 01:55N 36°08' W 005°22'0 0.2
2018-Jun-02 01:25N 36°08' W 005°22'0 0.1
2018-Jun-02 00:55N 36°08' W 005°22'0 0.3
2018-Jun-02 00:19N 36°07' W 005°22'0 0.1
2018-Jun-01 23:55N 36°08' W 005°22'0 0.1
2018-Jun-01 23:25N 36°07' W 005°22'0 0.1
2018-Jun-01 22:56N 36°08' W 005°22'1 3.3
2018-Jun-01 22:31N 36°06' W 005°22'3 5.5
2018-Jun-01 22:00N 36°05' W 005°19'1 1.3
2018-Jun-01 21:30N 36°05' W 005°18'1 1.6
2018-Jun-01 21:01N 36°04' W 005°18'3 6.8
2018-Jun-01 20:31N 36°03' W 005°14'4 7.9
2018-Jun-01 19:58N 36°05' W 005°08'166 8.6
2018-Jun-01 00:38N 36°11' W 001°44'214.1
2018-Jun-01 00:27N 36°11' W 001°41'1113.9
2018-May-31 23:40N 36°12' W 001°27'214.0
2018-May-31 23:30N 36°12' W 001°24'1014.2
2018-May-31 22:46N 36°14' W 001°11'515.2
2018-May-31 22:26N 36°15' W 001°05'1415.0
2018-May-31 21:28N 36°19' W 000°48'714.8
2018-May-31 21:00N 36°21' W 000°40'714.9
2018-May-31 20:30N 36°23' W 000°31'815.1
2018-May-31 19:59N 36°25' W 000°21'715.1
2018-May-31 19:30N 36°27' W 000°13'714.7
2018-May-31 19:00N 36°29' W 000°04'714.3
2018-May-31 18:30N 36°31' E 000°05'714.0
2018-May-31 18:00N 36°33' E 000°13'713.8
2018-May-31 17:30N 36°35' E 000°21'713.9
2018-May-31 17:00N 36°37' E 000°30'713.9
2018-May-31 16:30N 36°39' E 000°38'714.0
2018-May-31 16:00N 36°41' E 000°46'714.0
2018-May-31 15:30N 36°43' E 000°55'713.8
2018-May-31 15:00N 36°45' E 001°03'713.8
2018-May-31 14:30N 36°47' E 001°11'714.0
2018-May-31 14:00N 36°48' E 001°20'713.9
2018-May-31 13:30N 36°50' E 001°28'713.9
2018-May-31 13:00N 36°52' E 001°36'  

Dump ship's entire track history